createdAt,value
2022-08-30T00:00:05.156Z,15.94
2022-08-30T00:00:56.846Z,15.94
2022-08-30T00:01:32.142Z,15.94
2022-08-30T00:02:04.770Z,15.94
2022-08-30T00:02:37.406Z,15.94
2022-08-30T00:03:15.156Z,15.94
2022-08-30T00:03:48.190Z,15.94
2022-08-30T00:04:20.875Z,15.88
2022-08-30T00:04:55.248Z,15.94
2022-08-30T00:05:28.299Z,15.88
2022-08-30T00:06:00.918Z,15.88
2022-08-30T00:06:34.530Z,15.88
2022-08-30T00:07:07.145Z,15.88
2022-08-30T00:07:39.710Z,15.88
2022-08-30T00:08:13.677Z,15.94
2022-08-30T00:08:49.033Z,15.94
2022-08-30T00:09:21.540Z,15.94
2022-08-30T00:09:55.702Z,15.94
2022-08-30T00:10:29.582Z,15.94
2022-08-30T00:11:06.645Z,15.94
2022-08-30T00:11:39.177Z,15.94
2022-08-30T00:12:11.667Z,15.88
2022-08-30T00:12:45.211Z,15.88
2022-08-30T00:13:19.637Z,15.88
2022-08-30T00:13:54.346Z,15.88
2022-08-30T00:14:28.021Z,15.88
2022-08-30T00:15:00.574Z,15.88
2022-08-30T00:15:34.025Z,15.88
2022-08-30T00:16:08.466Z,15.88
2022-08-30T00:16:41.066Z,15.88
2022-08-30T00:17:13.848Z,15.88
2022-08-30T00:17:47.616Z,15.81
2022-08-30T00:18:22.308Z,15.81
2022-08-30T00:18:57.400Z,15.81
2022-08-30T00:19:31.467Z,15.81
2022-08-30T00:20:06.556Z,15.81
2022-08-30T00:20:39.472Z,15.81
2022-08-30T00:21:13.788Z,15.81
2022-08-30T00:21:46.348Z,15.81
2022-08-30T00:22:18.956Z,15.81
2022-08-30T00:22:52.483Z,15.81
2022-08-30T00:23:25.825Z,15.81
2022-08-30T00:23:58.380Z,15.81
2022-08-30T00:24:31.894Z,15.81
2022-08-30T00:25:05.080Z,15.81
2022-08-30T00:25:37.841Z,15.81
2022-08-30T00:26:11.324Z,15.81
2022-08-30T00:26:43.981Z,15.81
2022-08-30T00:27:16.546Z,15.81
2022-08-30T00:27:50.186Z,15.75
2022-08-30T00:28:22.700Z,15.75
2022-08-30T00:28:55.394Z,15.75
2022-08-30T00:29:28.882Z,15.75
2022-08-30T00:30:01.718Z,15.75
2022-08-30T00:30:34.460Z,15.69
2022-08-30T00:31:08.811Z,15.69
2022-08-30T00:31:41.424Z,15.69
2022-08-30T00:32:14.079Z,15.63
2022-08-30T00:32:47.723Z,15.63
2022-08-30T00:33:22.646Z,15.56
2022-08-30T00:33:55.275Z,15.56
2022-08-30T00:34:28.871Z,15.50
2022-08-30T00:35:01.917Z,15.50
2022-08-30T00:35:34.825Z,15.50
2022-08-30T00:36:08.622Z,15.44
2022-08-30T00:36:41.117Z,15.44
2022-08-30T00:37:13.796Z,15.44
2022-08-30T00:37:47.437Z,15.38
2022-08-30T00:38:20.028Z,15.38
2022-08-30T00:38:52.827Z,15.38
2022-08-30T00:39:26.427Z,15.38
2022-08-30T00:39:59.013Z,15.38
2022-08-30T00:40:31.907Z,15.38
2022-08-30T00:41:05.445Z,15.38
2022-08-30T00:41:38.087Z,15.31
2022-08-30T00:42:13.050Z,15.31
2022-08-30T00:42:50.676Z,15.31
2022-08-30T00:43:28.056Z,15.31
2022-08-30T00:44:00.698Z,15.31
2022-08-30T00:44:34.588Z,15.31
2022-08-30T00:45:13.140Z,15.25
2022-08-30T00:45:45.742Z,15.25
2022-08-30T00:46:19.356Z,15.25
2022-08-30T00:46:51.920Z,15.25
2022-08-30T00:47:24.558Z,15.19
2022-08-30T00:47:59.125Z,15.19
2022-08-30T00:48:33.484Z,15.19
2022-08-30T00:49:08.819Z,15.13
2022-08-30T00:49:46.269Z,15.13
2022-08-30T00:50:23.242Z,15.13
2022-08-30T00:50:59.795Z,15.13
2022-08-30T00:51:33.477Z,15.13
2022-08-30T00:52:07.425Z,15.19
2022-08-30T00:52:43.019Z,15.19
2022-08-30T00:53:20.912Z,15.19
2022-08-30T00:53:56.344Z,15.19
2022-08-30T00:54:30.159Z,15.13
2022-08-30T00:55:05.544Z,15.13
2022-08-30T00:55:38.978Z,15.13
2022-08-30T00:56:15.318Z,15.13
2022-08-30T00:56:50.751Z,15.13
2022-08-30T00:57:23.251Z,15.13
2022-08-30T00:58:00.791Z,15.06
2022-08-30T00:58:38.566Z,15.06
2022-08-30T00:59:11.461Z,15.06
2022-08-30T00:59:47.922Z,15.06
2022-08-30T01:00:20.835Z,15.06
2022-08-30T01:00:57.013Z,15.06
2022-08-30T01:01:32.089Z,15.06
2022-08-30T01:02:07.121Z,15.06
2022-08-30T01:02:39.927Z,15.00
2022-08-30T01:03:13.726Z,15.00
2022-08-30T01:03:48.797Z,15.00
2022-08-30T01:04:24.348Z,15.00
2022-08-30T01:04:57.828Z,15.00
2022-08-30T01:05:30.789Z,14.94
2022-08-30T01:06:05.907Z,14.94
2022-08-30T01:06:39.974Z,14.94
2022-08-30T01:07:12.692Z,14.94
2022-08-30T01:07:46.177Z,14.94
2022-08-30T01:08:20.398Z,14.94
2022-08-30T01:08:54.099Z,14.94
2022-08-30T01:09:27.702Z,14.94
2022-08-30T01:10:00.443Z,14.94
2022-08-30T01:10:35.809Z,14.94
2022-08-30T01:11:08.958Z,14.88
2022-08-30T01:11:42.905Z,14.88
2022-08-30T01:12:17.088Z,14.88
2022-08-30T01:12:50.080Z,14.88
2022-08-30T01:13:23.779Z,14.88
2022-08-30T01:13:58.412Z,14.81
2022-08-30T01:14:33.348Z,14.81
2022-08-30T01:15:09.533Z,14.81
2022-08-30T01:15:43.881Z,14.81
2022-08-30T01:16:16.797Z,14.81
2022-08-30T01:16:50.413Z,14.75
2022-08-30T01:17:24.183Z,14.75
2022-08-30T01:17:57.711Z,14.75
2022-08-30T01:18:31.914Z,14.75
2022-08-30T01:19:10.751Z,14.75
2022-08-30T01:19:50.566Z,14.75
2022-08-30T01:20:27.891Z,14.75
2022-08-30T01:21:10.256Z,14.69
2022-08-30T01:21:49.008Z,14.69
2022-08-30T01:22:27.725Z,14.69
2022-08-30T01:23:08.829Z,14.69
2022-08-30T01:23:43.872Z,14.69
2022-08-30T01:24:18.077Z,14.69
2022-08-30T01:24:52.845Z,14.69
2022-08-30T01:25:28.951Z,14.69
2022-08-30T01:26:03.368Z,14.69
2022-08-30T01:26:37.565Z,14.69
2022-08-30T01:27:10.122Z,14.69
2022-08-30T01:27:48.733Z,14.69
2022-08-30T01:28:23.835Z,14.63
2022-08-30T01:29:00.673Z,14.69
2022-08-30T01:29:33.456Z,14.63
2022-08-30T01:30:08.757Z,14.63
2022-08-30T01:30:43.101Z,14.63
2022-08-30T01:31:15.945Z,14.63
2022-08-30T01:31:50.148Z,14.63
2022-08-30T01:32:28.965Z,14.56
2022-08-30T01:33:03.859Z,14.63
2022-08-30T01:33:38.669Z,14.63
2022-08-30T01:34:12.469Z,14.63
2022-08-30T01:34:45.374Z,14.63
2022-08-30T01:35:20.441Z,14.56
2022-08-30T01:35:56.567Z,14.56
2022-08-30T01:36:29.541Z,14.56
2022-08-30T01:37:03.405Z,14.56
2022-08-30T01:37:36.653Z,14.56
2022-08-30T01:38:11.607Z,14.56
2022-08-30T01:38:49.119Z,14.56
2022-08-30T01:39:21.707Z,14.56
2022-08-30T01:39:54.843Z,14.56
2022-08-30T01:40:28.416Z,14.56
2022-08-30T01:41:09.831Z,14.56
2022-08-30T01:41:43.507Z,14.50
2022-08-30T01:42:18.375Z,14.50
2022-08-30T01:42:50.915Z,14.50
2022-08-30T01:43:24.520Z,14.50
2022-08-30T01:43:59.543Z,14.50
2022-08-30T01:44:32.084Z,14.50
2022-08-30T01:45:07.167Z,14.50
2022-08-30T01:45:39.892Z,14.50
2022-08-30T01:46:13.436Z,14.50
2022-08-30T01:46:48.956Z,14.50
2022-08-30T01:47:21.533Z,14.50
2022-08-30T01:47:54.071Z,14.50
2022-08-30T01:48:31.200Z,14.50
2022-08-30T01:49:06.936Z,14.50
2022-08-30T01:49:40.543Z,14.50
2022-08-30T01:50:14.155Z,14.44
2022-08-30T01:50:48.245Z,14.44
2022-08-30T01:51:21.882Z,14.44
2022-08-30T01:52:00.738Z,14.44
2022-08-30T01:52:34.169Z,14.44
2022-08-30T01:53:06.845Z,14.44
2022-08-30T01:53:44.258Z,14.44
2022-08-30T01:54:16.921Z,14.44
2022-08-30T01:54:50.212Z,14.44
2022-08-30T01:55:24.260Z,14.44
2022-08-30T01:55:56.867Z,14.44
2022-08-30T01:56:30.106Z,14.44
2022-08-30T01:57:04.963Z,14.44
2022-08-30T01:57:37.554Z,14.38
2022-08-30T01:58:10.859Z,14.38
2022-08-30T01:58:44.779Z,14.38
2022-08-30T01:59:17.916Z,14.44
2022-08-30T01:59:50.870Z,14.44
2022-08-30T02:00:24.607Z,14.44
2022-08-30T02:00:57.442Z,14.44
2022-08-30T02:01:33.351Z,14.44
2022-08-30T02:02:07.965Z,14.44
2022-08-30T02:02:40.777Z,14.44
2022-08-30T02:03:13.740Z,14.44
2022-08-30T02:03:48.488Z,14.44
2022-08-30T02:04:21.297Z,14.44
2022-08-30T02:04:54.602Z,14.44
2022-08-30T02:05:28.189Z,14.44
2022-08-30T02:06:03.734Z,14.44
2022-08-30T02:06:38.330Z,14.38
2022-08-30T02:07:13.075Z,14.38
2022-08-30T02:07:49.499Z,14.38
2022-08-30T02:08:22.035Z,14.44
2022-08-30T02:08:56.896Z,14.44
2022-08-30T02:09:29.914Z,14.44
2022-08-30T02:10:02.582Z,14.50
2022-08-30T02:10:36.116Z,14.50
2022-08-30T02:11:09.501Z,14.50
2022-08-30T02:11:42.540Z,14.50
2022-08-30T02:12:15.470Z,14.50
2022-08-30T02:12:49.049Z,14.50
2022-08-30T02:13:22.042Z,14.50
2022-08-30T02:13:54.626Z,14.50
2022-08-30T02:14:28.376Z,14.50
2022-08-30T02:15:00.943Z,14.50
2022-08-30T02:15:41.688Z,14.50
2022-08-30T02:16:18.347Z,14.50
2022-08-30T02:16:51.074Z,14.50
2022-08-30T02:17:25.151Z,14.44
2022-08-30T02:17:57.616Z,14.44
2022-08-30T02:18:34.735Z,14.44
2022-08-30T02:19:08.299Z,14.44
2022-08-30T02:19:41.554Z,14.44
2022-08-30T02:20:14.046Z,14.44
2022-08-30T02:20:48.210Z,14.44
2022-08-30T02:21:20.960Z,14.44
2022-08-30T02:21:53.514Z,14.44
2022-08-30T02:22:27.096Z,14.44
2022-08-30T02:23:01.392Z,14.44
2022-08-30T02:23:35.200Z,14.44
2022-08-30T02:24:09.144Z,14.44
2022-08-30T02:24:41.725Z,14.44
2022-08-30T02:25:18.658Z,14.44
2022-08-30T02:25:54.306Z,14.44
2022-08-30T02:26:27.114Z,14.44
2022-08-30T02:27:01.128Z,14.44
2022-08-30T02:27:34.050Z,14.44
2022-08-30T02:28:07.085Z,14.44
2022-08-30T02:28:49.997Z,14.44
2022-08-30T02:29:24.215Z,14.50
2022-08-30T02:29:56.840Z,14.44
2022-08-30T02:30:30.410Z,14.44
2022-08-30T02:31:03.399Z,14.44
2022-08-30T02:31:36.214Z,14.44
2022-08-30T02:32:09.883Z,14.44
2022-08-30T02:32:42.463Z,14.44
2022-08-30T02:33:15.409Z,14.44
2022-08-30T02:33:50.273Z,14.44
2022-08-30T02:34:23.304Z,14.44
2022-08-30T02:34:56.042Z,14.44
2022-08-30T02:35:29.532Z,14.44
2022-08-30T02:36:02.466Z,14.44
2022-08-30T02:36:34.969Z,14.44
2022-08-30T02:37:11.268Z,14.44
2022-08-30T02:37:43.948Z,14.38
2022-08-30T02:38:19.876Z,14.38
2022-08-30T02:38:53.773Z,14.38
2022-08-30T02:39:27.751Z,14.38
2022-08-30T02:40:00.329Z,14.38
2022-08-30T02:40:33.940Z,14.38
2022-08-30T02:41:08.122Z,14.31
2022-08-30T02:41:41.529Z,14.31
2022-08-30T02:42:15.077Z,14.31
2022-08-30T02:42:47.770Z,14.31
2022-08-30T02:43:20.686Z,14.31
2022-08-30T02:43:58.409Z,14.31
2022-08-30T02:44:31.036Z,14.31
2022-08-30T02:45:04.106Z,14.31
2022-08-30T02:45:37.732Z,14.31
2022-08-30T02:46:10.455Z,14.31
2022-08-30T02:46:43.095Z,14.31
2022-08-30T02:47:16.785Z,14.25
2022-08-30T02:47:49.370Z,14.25
2022-08-30T02:48:23.622Z,14.25
2022-08-30T02:48:58.668Z,14.25
2022-08-30T02:49:34.076Z,14.25
2022-08-30T02:50:10.100Z,14.25
2022-08-30T02:50:43.615Z,14.25
2022-08-30T02:51:16.412Z,14.25
2022-08-30T02:51:50.036Z,14.19
2022-08-30T02:52:27.814Z,14.19
2022-08-30T02:53:01.537Z,14.19
2022-08-30T02:53:34.098Z,14.19
2022-08-30T02:54:07.042Z,14.19
2022-08-30T02:54:41.874Z,14.19
2022-08-30T02:55:14.414Z,14.19
2022-08-30T02:55:47.384Z,14.19
2022-08-30T02:56:19.926Z,14.19
2022-08-30T02:56:53.949Z,14.13
2022-08-30T02:57:26.520Z,14.13
2022-08-30T02:57:58.988Z,14.13
2022-08-30T02:58:32.647Z,14.13
2022-08-30T02:59:05.140Z,14.13
2022-08-30T02:59:44.157Z,14.13
2022-08-30T03:00:20.558Z,14.06
2022-08-30T03:00:53.405Z,14.06
2022-08-30T03:01:29.339Z,14.06
2022-08-30T03:02:02.150Z,14.06
2022-08-30T03:02:34.922Z,14.06
2022-08-30T03:03:08.786Z,14.06
2022-08-30T03:03:42.935Z,14.06
2022-08-30T03:04:15.474Z,14.06
2022-08-30T03:04:49.307Z,14.06
2022-08-30T03:05:21.866Z,14.00
2022-08-30T03:05:54.376Z,14.00
2022-08-30T03:06:27.887Z,14.00
2022-08-30T03:07:00.401Z,14.00
2022-08-30T03:07:32.874Z,14.00
2022-08-30T03:08:06.344Z,14.00
2022-08-30T03:08:38.906Z,14.00
2022-08-30T03:09:11.434Z,14.00
2022-08-30T03:09:46.588Z,14.00
2022-08-30T03:10:19.433Z,14.00
2022-08-30T03:10:52.104Z,14.00
2022-08-30T03:11:26.750Z,14.00
2022-08-30T03:11:59.221Z,14.00
2022-08-30T03:12:32.594Z,14.00
2022-08-30T03:13:08.953Z,14.00
2022-08-30T03:13:42.098Z,14.00
2022-08-30T03:14:14.606Z,14.00
2022-08-30T03:14:48.368Z,14.00
2022-08-30T03:15:25.243Z,14.00
2022-08-30T03:15:58.317Z,14.00
2022-08-30T03:16:31.932Z,14.00
2022-08-30T03:17:05.474Z,14.00
2022-08-30T03:17:38.290Z,14.00
2022-08-30T03:18:11.785Z,14.00
2022-08-30T03:18:44.288Z,14.00
2022-08-30T03:19:16.958Z,13.94
2022-08-30T03:19:50.467Z,14.00
2022-08-30T03:20:23.904Z,13.94
2022-08-30T03:20:56.748Z,13.94
2022-08-30T03:21:30.305Z,13.94
2022-08-30T03:22:03.142Z,13.94
2022-08-30T03:22:36.006Z,13.94
2022-08-30T03:23:09.606Z,13.94
2022-08-30T03:23:43.062Z,13.94
2022-08-30T03:24:15.554Z,13.94
2022-08-30T03:24:50.346Z,13.94
2022-08-30T03:25:23.043Z,13.94
2022-08-30T03:25:55.566Z,13.94
2022-08-30T03:26:28.025Z,13.88
2022-08-30T03:27:01.599Z,13.88
2022-08-30T03:27:34.110Z,13.88
2022-08-30T03:28:06.936Z,13.88
2022-08-30T03:28:40.747Z,13.88
2022-08-30T03:29:13.531Z,13.88
2022-08-30T03:29:46.120Z,13.88
2022-08-30T03:30:21.032Z,13.88
2022-08-30T03:30:54.522Z,13.88
2022-08-30T03:31:27.029Z,13.88
2022-08-30T03:32:00.624Z,13.88
2022-08-30T03:32:33.253Z,13.88
2022-08-30T03:33:05.943Z,13.88
2022-08-30T03:33:41.976Z,13.81
2022-08-30T03:34:14.660Z,13.81
2022-08-30T03:34:50.247Z,13.88
2022-08-30T03:35:23.811Z,13.81
2022-08-30T03:35:56.363Z,13.81
2022-08-30T03:36:29.869Z,13.81
2022-08-30T03:37:02.447Z,13.81
2022-08-30T03:37:35.306Z,13.81
2022-08-30T03:38:08.806Z,13.81
2022-08-30T03:38:41.300Z,13.81
2022-08-30T03:39:14.020Z,13.81
2022-08-30T03:39:49.062Z,13.81
2022-08-30T03:40:22.759Z,13.81
2022-08-30T03:40:56.318Z,13.81
2022-08-30T03:41:30.433Z,13.88
2022-08-30T03:42:04.664Z,13.88
2022-08-30T03:42:38.022Z,13.88
2022-08-30T03:43:14.458Z,13.88
2022-08-30T03:43:47.544Z,13.88
2022-08-30T03:44:20.832Z,13.88
2022-08-30T03:44:55.537Z,13.88
2022-08-30T03:45:28.054Z,13.88
2022-08-30T03:46:01.094Z,13.88
2022-08-30T03:46:37.425Z,13.88
2022-08-30T03:47:10.243Z,13.88
2022-08-30T03:47:43.229Z,13.94
2022-08-30T03:48:17.862Z,13.88
2022-08-30T03:48:52.145Z,13.94
2022-08-30T03:49:24.766Z,13.94
2022-08-30T03:49:58.662Z,13.88
2022-08-30T03:50:32.612Z,13.88
2022-08-30T03:51:06.323Z,13.88
2022-08-30T03:51:38.856Z,13.88
2022-08-30T03:52:11.390Z,13.88
2022-08-30T03:52:45.959Z,13.88
2022-08-30T03:53:18.659Z,13.88
2022-08-30T03:53:51.233Z,13.88
2022-08-30T03:54:24.895Z,13.88
2022-08-30T03:55:00.770Z,13.81
2022-08-30T03:55:33.432Z,13.81
2022-08-30T03:56:07.226Z,13.81
2022-08-30T03:56:39.788Z,13.81
2022-08-30T03:57:13.399Z,13.81
2022-08-30T03:57:53.877Z,13.81
2022-08-30T03:58:26.501Z,13.81
2022-08-30T03:58:59.007Z,13.81
2022-08-30T03:59:32.451Z,13.75
2022-08-30T04:00:06.626Z,13.75
2022-08-30T04:00:44.002Z,13.75
2022-08-30T04:01:17.815Z,13.75
2022-08-30T04:01:50.383Z,13.75
2022-08-30T04:02:23.477Z,13.75
2022-08-30T04:02:57.000Z,13.75
2022-08-30T04:03:29.704Z,13.75
2022-08-30T04:04:02.878Z,13.75
2022-08-30T04:04:37.188Z,13.75
2022-08-30T04:05:10.756Z,13.69
2022-08-30T04:05:43.250Z,13.69
2022-08-30T04:06:16.911Z,13.69
2022-08-30T04:06:49.987Z,13.69
2022-08-30T04:07:22.470Z,13.69
2022-08-30T04:07:56.048Z,13.69
2022-08-30T04:08:28.812Z,13.69
2022-08-30T04:09:01.588Z,13.69
2022-08-30T04:09:35.049Z,13.69
2022-08-30T04:10:10.417Z,13.69
2022-08-30T04:10:42.896Z,13.69
2022-08-30T04:11:16.555Z,13.69
2022-08-30T04:11:49.275Z,13.69
2022-08-30T04:12:22.609Z,13.69
2022-08-30T04:12:56.800Z,13.69
2022-08-30T04:13:30.372Z,13.69
2022-08-30T04:14:05.040Z,13.69
2022-08-30T04:14:37.575Z,13.69
2022-08-30T04:15:11.883Z,13.69
2022-08-30T04:15:45.375Z,13.63
2022-08-30T04:16:18.250Z,13.63
2022-08-30T04:16:50.910Z,13.63
2022-08-30T04:17:24.428Z,13.63
2022-08-30T04:17:57.264Z,13.63
2022-08-30T04:18:30.013Z,13.63
2022-08-30T04:19:04.238Z,13.63
2022-08-30T04:19:36.800Z,13.63
2022-08-30T04:20:10.435Z,13.63
2022-08-30T04:20:44.439Z,13.56
2022-08-30T04:21:17.044Z,13.56
2022-08-30T04:21:49.671Z,13.56
2022-08-30T04:22:23.177Z,13.56
2022-08-30T04:22:55.645Z,13.56
2022-08-30T04:23:28.559Z,13.50
2022-08-30T04:24:02.017Z,13.50
2022-08-30T04:24:35.028Z,13.50
2022-08-30T04:25:15.668Z,13.50
2022-08-30T04:25:49.623Z,13.50
2022-08-30T04:26:22.222Z,13.50
2022-08-30T04:26:54.828Z,13.50
2022-08-30T04:27:28.284Z,13.50
2022-08-30T04:28:00.902Z,13.50
2022-08-30T04:28:34.006Z,13.50
2022-08-30T04:29:07.774Z,13.50
2022-08-30T04:29:40.262Z,13.50
2022-08-30T04:30:15.115Z,13.50
2022-08-30T04:30:48.786Z,13.50
2022-08-30T04:31:22.039Z,13.50
2022-08-30T04:31:54.669Z,13.50
2022-08-30T04:32:28.567Z,13.50
2022-08-30T04:33:01.299Z,13.50
2022-08-30T04:33:35.385Z,13.50
2022-08-30T04:34:12.279Z,13.50
2022-08-30T04:34:44.762Z,13.50
2022-08-30T04:35:17.548Z,13.50
2022-08-30T04:35:51.625Z,13.50
2022-08-30T04:36:24.756Z,13.50
2022-08-30T04:36:57.278Z,13.50
2022-08-30T04:37:32.328Z,13.50
2022-08-30T04:38:04.824Z,13.50
2022-08-30T04:38:38.193Z,13.44
2022-08-30T04:39:11.826Z,13.50
2022-08-30T04:39:44.370Z,13.50
2022-08-30T04:40:18.446Z,13.44
2022-08-30T04:40:52.140Z,13.44
2022-08-30T04:41:24.642Z,13.44
2022-08-30T04:41:57.533Z,13.44
2022-08-30T04:42:34.049Z,13.44
2022-08-30T04:43:06.582Z,13.44
2022-08-30T04:43:40.038Z,13.44
2022-08-30T04:44:14.231Z,13.44
2022-08-30T04:44:51.741Z,13.44
2022-08-30T04:45:24.379Z,13.44
2022-08-30T04:45:58.152Z,13.44
2022-08-30T04:46:30.998Z,13.44
2022-08-30T04:47:03.681Z,13.44
2022-08-30T04:47:39.175Z,13.44
2022-08-30T04:48:11.624Z,13.44
2022-08-30T04:48:45.103Z,13.44
2022-08-30T04:49:17.617Z,13.44
2022-08-30T04:49:51.147Z,13.44
2022-08-30T04:50:23.701Z,13.44
2022-08-30T04:50:56.169Z,13.44
2022-08-30T04:51:29.682Z,13.44
2022-08-30T04:52:02.559Z,13.44
2022-08-30T04:52:36.164Z,13.44
2022-08-30T04:53:09.148Z,13.50
2022-08-30T04:53:42.060Z,13.50
2022-08-30T04:54:15.683Z,13.56
2022-08-30T04:54:48.151Z,13.56
2022-08-30T04:55:26.862Z,13.56
2022-08-30T04:55:59.604Z,13.56
2022-08-30T04:56:32.475Z,13.56
2022-08-30T04:57:07.408Z,13.63
2022-08-30T04:57:40.954Z,13.63
2022-08-30T04:58:13.450Z,13.63
2022-08-30T04:58:48.268Z,13.63
2022-08-30T04:59:22.193Z,13.63
2022-08-30T04:59:55.325Z,13.63
2022-08-30T05:00:28.943Z,13.63
2022-08-30T05:01:01.556Z,13.63
2022-08-30T05:01:36.744Z,13.69
2022-08-30T05:02:20.089Z,13.69
2022-08-30T05:02:52.571Z,13.69
2022-08-30T05:03:25.259Z,13.69
2022-08-30T05:03:59.592Z,13.69
2022-08-30T05:04:32.295Z,13.69
2022-08-30T05:05:24.342Z,13.69
2022-08-30T05:05:57.875Z,13.69
2022-08-30T05:06:31.233Z,13.75
2022-08-30T05:07:03.831Z,13.75
2022-08-30T05:07:37.635Z,13.81
2022-08-30T05:08:11.865Z,13.81
2022-08-30T05:08:45.905Z,13.81
2022-08-30T05:09:19.133Z,13.81
2022-08-30T05:09:51.697Z,13.88
2022-08-30T05:10:27.519Z,13.88
2022-08-30T05:11:03.395Z,13.88
2022-08-30T05:11:38.695Z,13.94
2022-08-30T05:12:11.189Z,13.94
2022-08-30T05:12:46.125Z,13.94
2022-08-30T05:13:21.325Z,13.94
2022-08-30T05:14:07.694Z,13.94
2022-08-30T05:14:41.128Z,13.94
2022-08-30T05:15:13.895Z,13.94
2022-08-30T05:15:47.958Z,13.94
2022-08-30T05:16:20.632Z,13.94
2022-08-30T05:16:53.203Z,13.94
2022-08-30T05:17:26.847Z,13.94
2022-08-30T05:17:59.644Z,13.94
2022-08-30T05:18:32.195Z,13.94
2022-08-30T05:19:07.875Z,13.94
2022-08-30T05:19:40.362Z,14.00
2022-08-30T05:20:13.366Z,14.00
2022-08-30T05:20:46.919Z,14.00
2022-08-30T05:21:21.151Z,14.00
2022-08-30T05:21:53.663Z,14.06
2022-08-30T05:22:27.161Z,14.06
2022-08-30T05:22:59.621Z,14.06
2022-08-30T05:23:32.393Z,14.13
2022-08-30T05:24:06.268Z,14.13
2022-08-30T05:24:38.749Z,14.13
2022-08-30T05:25:11.212Z,14.13
2022-08-30T05:25:49.555Z,14.13
2022-08-30T05:26:25.115Z,14.19
2022-08-30T05:26:57.938Z,14.19
2022-08-30T05:27:31.457Z,14.19
2022-08-30T05:28:04.898Z,14.19
2022-08-30T05:28:37.855Z,14.19
2022-08-30T05:29:11.443Z,14.25
2022-08-30T05:29:43.957Z,14.25
2022-08-30T05:30:17.368Z,14.25
2022-08-30T05:30:50.833Z,14.25
2022-08-30T05:31:26.643Z,14.25
2022-08-30T05:32:00.271Z,14.25
2022-08-30T05:32:32.812Z,14.25
2022-08-30T05:33:05.897Z,14.31
2022-08-30T05:33:39.676Z,14.31
2022-08-30T05:34:12.243Z,14.31
2022-08-30T05:34:45.788Z,14.31
2022-08-30T05:35:23.536Z,14.31
2022-08-30T05:35:59.009Z,14.31
2022-08-30T05:36:35.589Z,14.38
2022-08-30T05:37:08.555Z,14.38
2022-08-30T05:37:42.623Z,14.38
2022-08-30T05:38:15.850Z,14.44
2022-08-30T05:38:48.607Z,14.44
2022-08-30T05:39:22.480Z,14.44
2022-08-30T05:39:56.586Z,14.44
2022-08-30T05:40:29.390Z,14.50
2022-08-30T05:41:08.385Z,14.50
2022-08-30T05:41:43.550Z,14.50
2022-08-30T05:42:17.372Z,14.56
2022-08-30T05:42:49.949Z,14.63
2022-08-30T05:43:22.429Z,14.63
2022-08-30T05:44:01.871Z,14.69
2022-08-30T05:44:34.916Z,14.69
2022-08-30T05:45:08.805Z,14.75
2022-08-30T05:45:42.321Z,14.75
2022-08-30T05:46:19.403Z,14.75
2022-08-30T05:46:54.805Z,14.81
2022-08-30T05:47:31.277Z,14.81
2022-08-30T05:48:04.655Z,14.81
2022-08-30T05:48:38.975Z,14.81
2022-08-30T05:49:11.671Z,14.81
2022-08-30T05:49:44.178Z,14.81
2022-08-30T05:50:17.671Z,14.88
2022-08-30T05:50:50.137Z,14.88
2022-08-30T05:51:25.871Z,14.88
2022-08-30T05:51:58.424Z,14.88
2022-08-30T05:52:30.907Z,14.94
2022-08-30T05:53:04.371Z,14.94
2022-08-30T05:53:37.519Z,14.94
2022-08-30T05:54:10.591Z,15.00
2022-08-30T05:54:44.108Z,15.00
2022-08-30T05:55:18.900Z,15.00
2022-08-30T05:55:54.272Z,15.00
2022-08-30T05:56:32.677Z,15.00
2022-08-30T05:57:05.569Z,15.00
2022-08-30T05:57:41.525Z,15.00
2022-08-30T05:58:14.033Z,15.06
2022-08-30T05:58:46.916Z,15.06
2022-08-30T05:59:20.359Z,15.06
2022-08-30T05:59:52.943Z,15.06
2022-08-30T06:00:26.571Z,15.13
2022-08-30T06:01:00.427Z,15.13
2022-08-30T06:01:34.924Z,15.13
2022-08-30T06:02:13.270Z,15.19
2022-08-30T06:02:47.043Z,15.19
2022-08-30T06:03:19.629Z,15.25
2022-08-30T06:03:52.847Z,15.25
2022-08-30T06:04:26.898Z,15.25
2022-08-30T06:04:59.361Z,15.31
2022-08-30T06:05:32.810Z,15.31
2022-08-30T06:06:09.421Z,15.38
2022-08-30T06:06:43.901Z,15.38
2022-08-30T06:07:18.015Z,15.44
2022-08-30T06:07:54.659Z,15.44
2022-08-30T06:08:27.743Z,15.44
2022-08-30T06:09:00.569Z,15.44
2022-08-30T06:09:34.695Z,15.44
2022-08-30T06:10:07.555Z,15.50
2022-08-30T06:10:40.051Z,15.50
2022-08-30T06:11:14.311Z,15.50
2022-08-30T06:11:48.398Z,15.50
2022-08-30T06:12:24.006Z,15.56
2022-08-30T06:12:57.621Z,15.56
2022-08-30T06:13:35.916Z,15.56
2022-08-30T06:14:09.052Z,15.56
2022-08-30T06:14:42.515Z,15.63
2022-08-30T06:15:15.149Z,15.63
2022-08-30T06:15:49.559Z,15.63
2022-08-30T06:16:23.920Z,15.63
2022-08-30T06:16:58.473Z,15.63
2022-08-30T06:17:30.973Z,15.63
2022-08-30T06:18:08.047Z,15.69
2022-08-30T06:18:41.962Z,15.69
2022-08-30T06:19:15.869Z,15.69
2022-08-30T06:19:48.408Z,15.69
2022-08-30T06:20:21.836Z,15.75
2022-08-30T06:20:54.321Z,15.75
2022-08-30T06:21:29.518Z,15.75
2022-08-30T06:22:03.054Z,15.81
2022-08-30T06:22:35.903Z,15.81
2022-08-30T06:23:08.591Z,15.81
2022-08-30T06:23:44.658Z,15.88
2022-08-30T06:24:17.931Z,15.88
2022-08-30T06:24:57.524Z,15.88
2022-08-30T06:25:42.010Z,15.94
2022-08-30T06:26:16.091Z,15.94
2022-08-30T06:26:51.237Z,15.94
2022-08-30T06:27:23.845Z,16.00
2022-08-30T06:27:58.894Z,16.00
2022-08-30T06:28:33.111Z,16.00
2022-08-30T06:29:06.128Z,16.06
2022-08-30T06:29:41.829Z,16.06
2022-08-30T06:30:15.723Z,16.06
2022-08-30T06:30:51.527Z,16.13
2022-08-30T06:31:26.041Z,16.13
2022-08-30T06:32:00.141Z,16.13
2022-08-30T06:32:32.715Z,16.13
2022-08-30T06:33:05.279Z,16.13
2022-08-30T06:33:39.090Z,16.19
2022-08-30T06:34:11.650Z,16.19
2022-08-30T06:34:45.117Z,16.19
2022-08-30T06:35:20.976Z,16.19
2022-08-30T06:36:06.029Z,16.25
2022-08-30T06:36:39.340Z,16.25
2022-08-30T06:37:12.763Z,16.25
2022-08-30T06:38:02.437Z,16.31
2022-08-30T06:38:36.213Z,16.31
2022-08-30T06:39:09.437Z,16.38
2022-08-30T06:39:42.149Z,16.38
2022-08-30T06:40:17.660Z,16.38
2022-08-30T06:40:59.147Z,16.44
2022-08-30T06:41:33.221Z,16.44
2022-08-30T06:42:08.260Z,16.44
2022-08-30T06:42:41.590Z,16.50
2022-08-30T06:43:14.113Z,16.50
2022-08-30T06:43:50.094Z,16.56
2022-08-30T06:44:22.681Z,16.56
2022-08-30T06:44:57.369Z,16.56
2022-08-30T06:45:31.089Z,16.63
2022-08-30T06:46:04.379Z,16.63
2022-08-30T06:46:39.864Z,16.69
2022-08-30T06:47:12.449Z,16.69
2022-08-30T06:47:46.042Z,16.75
2022-08-30T06:48:18.692Z,16.75
2022-08-30T06:48:51.487Z,16.75
2022-08-30T06:49:25.058Z,16.75
2022-08-30T06:49:59.497Z,16.81
2022-08-30T06:50:32.152Z,16.81
2022-08-30T06:51:07.667Z,16.88
2022-08-30T06:51:40.278Z,16.88
2022-08-30T06:52:15.654Z,16.88
2022-08-30T06:52:48.249Z,16.94
2022-08-30T06:53:21.069Z,16.94
2022-08-30T06:53:54.900Z,16.94
2022-08-30T06:54:27.479Z,17.00
2022-08-30T06:55:00.067Z,17.00
2022-08-30T06:55:34.191Z,17.00
2022-08-30T06:56:08.934Z,17.00
2022-08-30T06:56:57.562Z,17.06
2022-08-30T06:57:32.862Z,17.06
2022-08-30T06:58:06.645Z,17.06
2022-08-30T06:58:40.951Z,17.13
2022-08-30T06:59:13.698Z,17.13
2022-08-30T06:59:47.330Z,17.13
2022-08-30T07:00:20.116Z,17.19
2022-08-30T07:00:52.647Z,17.19
2022-08-30T07:01:28.327Z,17.19
2022-08-30T07:02:00.866Z,17.19
2022-08-30T07:02:37.400Z,17.25
2022-08-30T07:03:10.022Z,17.25
2022-08-30T07:03:43.875Z,17.31
2022-08-30T07:04:16.361Z,17.31
2022-08-30T07:04:49.813Z,17.31
2022-08-30T07:05:23.724Z,17.38
2022-08-30T07:05:57.634Z,17.38
2022-08-30T07:06:31.657Z,17.38
2022-08-30T07:07:04.320Z,17.38
2022-08-30T07:07:37.851Z,17.44
2022-08-30T07:08:10.383Z,17.44
2022-08-30T07:08:43.033Z,17.44
2022-08-30T07:09:16.745Z,17.44
2022-08-30T07:09:49.270Z,17.50
2022-08-30T07:10:24.291Z,17.50
2022-08-30T07:10:58.115Z,17.50
2022-08-30T07:11:32.901Z,17.56
2022-08-30T07:12:07.258Z,17.56
2022-08-30T07:12:41.633Z,17.56
2022-08-30T07:13:15.095Z,17.56
2022-08-30T07:13:47.613Z,17.63
2022-08-30T07:14:21.415Z,17.63
2022-08-30T07:14:53.896Z,17.63
2022-08-30T07:15:27.491Z,17.69
2022-08-30T07:16:00.216Z,17.69
2022-08-30T07:16:34.263Z,17.75
2022-08-30T07:17:39.858Z,17.75
2022-08-30T07:18:31.641Z,17.75
2022-08-30T07:19:05.495Z,17.81